GCLPGMMI

Guest
Details From GCLP - Gran Canaria
To GMMI - MOGADOR INTL
Flight Number -
Tags generated
Created
Modified
Stats Distance 369 nm / 683 km
Max Altitude 35,000 ft / 10,668 m
Waypoints 7
Social Downloads 7
Likes 0
Share

Download

Looking for another format? Having issues loading an existing format? Contact us
Advertisement - Login to hide

Notes

Basic altitude profile: - Ascent Rate: 2500ft/min - Ascent Speed: 250kts - Cruise Altitude: 35000ft - Cruise Speed: 420kts - Descent Rate: 1500ft/min - Descent Speed: 250kts Options: - Use NATs: yes - Use PACOTS: yes - Use low airways: yes - Use high airways: yes

Route

GCLP GDV G5 LZR UN871 KORAL UG5 SONSO G5 NISUR GMMI

ID Type Via Altitude (ft/m) Position (lat/lon) Dist (leg/tot) Name
O GCLP APT - 0 / 0 27.93154 / -15.38559 - / 0 nm Gran Canaria
GDV VOR - 3,200 / 975 28.07708 / -15.42899 9 / 9 nm GRAN CANARIA VOR-DME
LZR VOR G5 (AWY-LO) 23,500 / 7,163 29.16600 / -13.51073 120 / 129 nm LANZAROTE VOR-DME
KORAL FIX UN871 (AWY-HI) 35,000 / 10,668 29.73143 / -12.57834 59 / 188 nm
SONSO FIX UG5 (AWY-HI) 31,100 / 9,479 30.01222 / -12.10194 29 / 218 nm
NISUR FIX G5 (AWY-LO) 6,500 / 1,981 31.17889 / -10.08333 125 / 344 nm
O GMMI APT - 0 / 0 31.39709 / -9.68204 24 / 368 nm MOGADOR INTL

Altitude Profile

Advertisement - Login to hide

Weather


0- 5 10 15 20 25 30 35+ Temperature / °C

Clouds and Precipitation
Forecast for 2021-09-27 06:00 UTC. Updated 4 hours ago

Ground ~20,000 ft ~40,000 ft Winds

GCLP

Details ICAO GCLP (LPA)
Name Gran Canaria
Region Canary Islands
Timezone Atlantic/Canary (UTC+1.0)
Stats Elevation 78 ft / 24 m (AMSL)
Location 27.931600° -15.385600°
Runways 2
Magnetic Variation 4.249° W

METAR

GCLP 270700Z 01018KT 9999 FEW015 23/20 Q1020 NOSIG

Decode

TAF

TAF GCLP 270200Z 2703/2803 01018KT 9999 FEW020 TX28/2714Z TN22/2706Z PROB30 TEMPO 2711/2719 02020G30KT

Decode

Departure Runways

ID Width Length Bearing (true/mag) Surface Threshold Overrun Markings Lighting
03L 148 ft / 45 m 10,201 ft / 3,109 m 21.35° / 25.60° ASPHALT 0 ft / 0 m 656 ft / 200 m PREC-APP CENTERLINE EDGE THRESHOLD ALSF-I REIL-OMNI
03R 148 ft / 45 m 10,180 ft / 3,103 m 21.32° / 25.57° ASPHALT 0 ft / 0 m 656 ft / 200 m PREC-APP CENTERLINE EDGE THRESHOLD ALSF-I REIL-OMNI
21L 148 ft / 45 m 10,180 ft / 3,103 m 201.33° / 205.58° ASPHALT 0 ft / 0 m 666 ft / 203 m PREC-APP CENTERLINE EDGE THRESHOLD MALS REIL-OMNI
21R 148 ft / 45 m 10,201 ft / 3,109 m 201.35° / 205.60° ASPHALT 0 ft / 0 m 738 ft / 225 m PREC-APP CENTERLINE EDGE THRESHOLD MALS REIL-OMNI

GMMI

Details ICAO GMMI (ESU)
Name Essaouira/Mogador International Airport
Region Morocco
Timezone Africa/Casablanca (UTC+1.0)
Stats Elevation 420 ft / 128 m (AMSL)
Location 31.399100° -9.682970°
Runways 1
Magnetic Variation 2.105° W

METAR

GMMI 270700Z VRB02KT 7000 NSC 15/12 Q1020 NOSIG

Decode

TAF

TAF GMMI 270500Z 2706/2812 VRB02KT 7000 NSC= TAF GMMW 270500Z 2706/2812 VRB02KT CAVOK

Decode

Destination Runways

ID Width Length Bearing (true/mag) Surface Threshold Overrun Markings Lighting
16 140 ft / 43 m 8,475 ft / 2,583 m 158.73° / 160.83° ASPHALT 0 ft / 0 m 0 ft / 0 m PREC-APP EDGE THRESHOLD
34 140 ft / 43 m 8,475 ft / 2,583 m 338.73° / 340.84° ASPHALT 0 ft / 0 m 0 ft / 0 m PREC-APP EDGE THRESHOLD

Popular Alternatives